Portada
METAR-TAF:

METAR-TAF

Aeroports :

Hiroshima, Japó

latitud: 34-26N, longitud: 132-55E, altitud: 331 m

Observació

L'informe es va fer fa 2 hores i 43 minuts, a les 13:00 UTC
Vent calma
Temperatura 16°C
Humitat 55%
Pressió 1017 hPa
Visibilitat 10 km o més
Escasses núvols a una alçada de 3000 ft
Núvols disperses a una alçada de 18000 ft
Cel ennuvolat

METAR: RJOA 061300Z 00000KT 9999 FEW030 SCT180 BKN/// 16/07 Q1017

Hora: 00:43 (15:43 UTC)

Pronòstic

L'informe es va fer fa 4 hores i 38 minuts, a les 11:05 UTC
Pronòstic vàlid del 06 a les 12 UTC al 07 a les 18 UTC
Vent 4 kt del Nord-Oest
Visibilitat 10 km o més
Escasses núvols a una alçada de 3500 ft

TAF: RJOA 061105Z 0612/0718 32004KT 9999 FEW035

Observacions i pronòstics meteorològics de més de 4000 aeroports (METAR i TAF).

Les estacions disponibles són els punts grocs i vermells al mapa.

Posi el ratolí al punt desitjat per veure el nom de l'estació.

Feu clic per veure les observacions i els pronòstics meteorològics.

Per canviar el mapa: feu clic els botons verds amb una creu de color negre per apropar; al botó verd amb un guió per allunyar la imatge; o en les fletxes verdes per a mapes adjacents.


METAR-TAF: